Time;durP1;ratioP1;P1;durP2;ratioP2;P2;SDS_P1;SDS_P2;PMS_P1;PMS_P2;Temp;Humidity;BMP_temperature;BMP_pressure;BME280_temperature;BME280_humidity;BME280_pressure;Samples;Min_cycle;Max_cycle;Signal;HPM_P1;HPM_P2
2022/03/21 00:00:59;;;;;;;8.67;6.67;;;4.60;48.30;;;;;;5032522;28;20203;-50
2022/03/21 00:03:28;;;;;;;7.73;6.50;;;4.60;48.50;;;;;;5026910;28;20195;-52
2022/03/21 00:05:55;;;;;;;8.40;6.87;;;4.50;48.40;;;;;;5032774;28;20178;-52
2022/03/21 00:08:22;;;;;;;8.60;7.23;;;4.50;48.40;;;;;;5032730;28;20183;-49
2022/03/21 00:10:48;;;;;;;10.20;7.60;;;4.50;48.20;;;;;;5032531;28;20167;-49
2022/03/21 00:13:15;;;;;;;9.43;7.87;;;4.50;48.60;;;;;;5032379;28;20638;-51
2022/03/21 00:15:45;;;;;;;8.67;7.50;;;4.50;48.70;;;;;;5032664;28;20221;-51
2022/03/21 00:18:14;;;;;;;10.47;8.30;;;4.40;49.00;;;;;;5022247;28;20178;-49
2022/03/21 00:20:50;;;;;;;9.93;7.50;;;4.40;48.70;;;;;;5030409;28;20203;-51
2022/03/21 00:23:17;;;;;;;9.43;7.80;;;4.40;48.80;;;;;;5023850;28;20164;-51
2022/03/21 00:25:43;;;;;;;10.13;8.63;;;4.40;48.90;;;;;;5026965;28;20656;-50
2022/03/21 00:28:09;;;;;;;9.93;8.17;;;4.30;48.80;;;;;;5031080;28;20179;-49
2022/03/21 00:30:37;;;;;;;8.80;7.90;;;4.30;49.20;;;;;;5032354;28;20246;-50
2022/03/21 00:33:03;;;;;;;8.37;7.00;;;4.20;48.90;;;;;;5032000;28;20532;-52
2022/03/21 00:35:29;;;;;;;8.87;6.87;;;4.20;48.70;;;;;;5030217;28;20233;-49
2022/03/21 00:37:56;;;;;;;8.77;7.63;;;4.20;49.10;;;;;;5014327;28;20176;-51
2022/03/21 00:40:24;;;;;;;11.00;8.20;;;4.10;48.90;;;;;;5031989;28;20290;-49
2022/03/21 00:42:51;;;;;;;10.57;8.27;;;4.20;48.90;;;;;;5031729;28;20183;-51
2022/03/21 00:45:19;;;;;;;8.63;7.73;;;4.20;48.80;;;;;;5032336;28;20175;-50
2022/03/21 00:47:46;;;;;;;9.47;7.63;;;4.20;48.80;;;;;;5032018;28;20179;-50
2022/03/21 00:50:14;;;;;;;9.80;8.17;;;4.10;48.90;;;;;;5031812;28;20192;-50
2022/03/21 00:52:46;;;;;;;9.20;7.33;;;4.10;49.20;;;;;;5030273;28;20712;-53
2022/03/21 00:55:13;;;;;;;9.20;7.47;;;4.10;48.90;;;;;;5031876;28;20252;-51
2022/03/21 00:57:40;;;;;;;9.10;7.50;;;4.10;49.30;;;;;;5031985;28;20662;-52
2022/03/21 01:00:08;;;;;;;9.17;6.90;;;4.00;49.30;;;;;;5031562;28;20561;-52
2022/03/21 01:02:38;;;;;;;9.63;7.00;;;4.00;49.20;;;;;;5031697;28;20254;-53
2022/03/21 01:05:04;;;;;;;7.27;6.27;;;4.00;48.50;;;;;;5031727;28;20172;-49
2022/03/21 01:07:30;;;;;;;7.97;6.90;;;3.90;48.20;;;;;;5031799;28;20171;-50
2022/03/21 01:09:56;;;;;;;7.37;6.30;;;4.00;49.00;;;;;;5031589;28;20194;-49
2022/03/21 01:12:22;;;;;;;8.47;7.17;;;4.00;49.10;;;;;;5030953;28;20190;-49
2022/03/21 01:14:47;;;;;;;9.00;7.07;;;4.00;49.20;;;;;;5031769;28;20600;-52
2022/03/21 01:17:13;;;;;;;9.50;7.70;;;3.90;49.10;;;;;;5031675;28;20589;-54
2022/03/21 01:19:38;;;;;;;9.00;7.70;;;3.90;49.00;;;;;;5031491;28;20687;-49
2022/03/21 01:22:06;;;;;;;8.60;7.70;;;3.80;49.40;;;;;;5031577;28;20198;-52
2022/03/21 01:24:32;;;;;;;9.53;7.80;;;3.80;48.90;;;;;;5031677;28;20660;-54
2022/03/21 01:26:58;;;;;;;9.93;7.33;;;3.80;49.30;;;;;;5023174;28;20179;-51
2022/03/21 01:29:24;;;;;;;10.10;7.30;;;3.80;49.00;;;;;;5031803;28;20282;-53
2022/03/21 01:31:49;;;;;;;8.93;7.27;;;3.80;49.00;;;;;;5031415;28;20203;-49
2022/03/21 01:34:15;;;;;;;9.23;7.80;;;3.80;49.40;;;;;;5031363;28;20183;-52
2022/03/21 01:36:41;;;;;;;9.07;7.53;;;3.80;49.30;;;;;;5031513;28;20164;-50
2022/03/21 01:39:07;;;;;;;9.47;7.33;;;3.80;49.00;;;;;;5031480;28;20245;-49
2022/03/21 01:41:33;;;;;;;7.73;6.50;;;3.80;49.30;;;;;;5021618;28;20204;-51
2022/03/21 01:44:01;;;;;;;8.43;7.07;;;3.70;49.00;;;;;;5023365;28;20179;-49
2022/03/21 01:46:28;;;;;;;7.87;6.70;;;3.70;48.70;;;;;;5027209;28;20191;-53
2022/03/21 01:48:54;;;;;;;8.03;7.13;;;3.70;48.90;;;;;;5029448;28;20196;-50
2022/03/21 01:51:20;;;;;;;8.23;6.60;;;3.70;49.30;;;;;;5031328;28;20184;-50
2022/03/21 01:56:32;;;;;;;7.40;6.50;;;3.60;48.90;;;;;;5031488;28;20168;-53
2022/03/21 01:58:57;;;;;;;8.07;6.07;;;3.60;48.90;;;;;;5025586;28;20204;-53
2022/03/21 02:01:23;;;;;;;7.63;6.83;;;3.60;49.00;;;;;;5031100;28;20215;-49
2022/03/21 02:03:49;;;;;;;8.90;7.70;;;3.50;49.10;;;;;;5030998;28;20176;-50
2022/03/21 02:06:16;;;;;;;11.70;8.77;;;3.50;49.20;;;;;;5031227;28;20168;-49
2022/03/21 02:08:42;;;;;;;9.10;7.67;;;3.50;49.60;;;;;;5031277;28;20275;-54
2022/03/21 02:11:08;;;;;;;9.57;7.93;;;3.50;49.80;;;;;;5031058;28;20633;-52
2022/03/21 02:13:35;;;;;;;10.87;8.83;;;3.50;49.80;;;;;;5030852;28;20175;-51
2022/03/21 02:16:00;;;;;;;10.47;7.83;;;3.40;50.00;;;;;;5026111;28;20194;-52
2022/03/21 02:18:27;;;;;;;8.53;7.50;;;3.40;50.30;;;;;;5030991;28;20680;-51
2022/03/21 02:20:56;;;;;;;8.70;7.60;;;3.40;50.30;;;;;;5030863;28;20196;-53
2022/03/21 02:23:49;;;;;;;9.33;7.63;;;3.30;50.20;;;;;;5032676;28;20171;-51
2022/03/21 02:26:16;;;;;;;9.03;7.27;;;3.30;50.40;;;;;;5034671;28;20787;-50
2022/03/21 02:28:44;;;;;;;8.80;7.37;;;3.30;50.10;;;;;;5034833;28;20310;-53
2022/03/21 02:31:10;;;;;;;9.77;7.27;;;3.30;49.60;;;;;;5034451;28;20946;-50
2022/03/21 02:33:36;;;;;;;11.50;8.13;;;3.30;49.50;;;;;;5034623;28;20406;-49
2022/03/21 02:36:03;;;;;;;9.60;7.67;;;3.20;50.40;;;;;;5034707;28;20716;-49
2022/03/21 02:38:30;;;;;;;9.50;7.30;;;3.20;50.40;;;;;;5034257;28;20198;-50
2022/03/21 02:40:56;;;;;;;10.53;8.40;;;3.20;50.20;;;;;;5034461;28;20199;-49
2022/03/21 02:43:21;;;;;;;10.93;8.87;;;3.20;50.10;;;;;;5034078;28;20178;-50
2022/03/21 02:45:47;;;;;;;8.77;7.80;;;3.20;50.40;;;;;;5034334;28;20633;-49
2022/03/21 02:48:13;;;;;;;10.23;8.60;;;3.20;50.50;;;;;;5034198;28;20172;-50
2022/03/21 02:50:49;;;;;;;9.93;8.13;;;3.20;50.60;;;;;;5030414;28;20668;-50
2022/03/21 02:53:16;;;;;;;11.27;8.30;;;3.20;50.50;;;;;;5033714;28;20684;-53
2022/03/21 02:55:42;;;;;;;10.83;8.00;;;3.10;50.20;;;;;;5033821;28;20203;-50
2022/03/21 02:58:08;;;;;;;9.80;8.30;;;3.10;50.40;;;;;;5033993;28;20512;-48
2022/03/21 03:00:34;;;;;;;10.30;8.20;;;3.10;50.80;;;;;;5033894;28;20346;-49
2022/03/21 03:03:00;;;;;;;11.47;8.40;;;3.10;51.60;;;;;;5033840;28;20251;-51
2022/03/21 03:05:25;;;;;;;9.37;8.03;;;3.10;51.80;;;;;;5033662;28;20224;-50
2022/03/21 03:07:51;;;;;;;9.77;8.13;;;3.00;51.30;;;;;;5033999;28;20318;-49
2022/03/21 03:10:16;;;;;;;9.90;8.60;;;3.00;51.00;;;;;;5033594;28;20199;-51
2022/03/21 03:12:42;;;;;;;9.63;7.93;;;3.00;51.20;;;;;;5033660;28;20576;-49
2022/03/21 03:15:08;;;;;;;9.57;7.53;;;2.90;50.80;;;;;;5033684;28;20188;-51
2022/03/21 03:17:33;;;;;;;8.00;6.73;;;2.90;50.60;;;;;;5033853;28;20194;-49
2022/03/21 03:19:59;;;;;;;8.63;6.87;;;2.90;50.50;;;;;;5033354;28;20470;-50
2022/03/21 03:22:26;;;;;;;7.60;6.17;;;2.90;50.30;;;;;;5033341;28;20200;-49
2022/03/21 03:24:52;;;;;;;7.90;6.67;;;2.90;50.60;;;;;;5033661;28;20222;-51
2022/03/21 03:27:18;;;;;;;8.40;6.80;;;2.90;50.40;;;;;;5033448;28;20552;-49
2022/03/21 03:29:44;;;;;;;8.47;6.67;;;2.90;50.20;;;;;;5033456;28;20206;-52
2022/03/21 03:32:09;;;;;;;8.07;6.80;;;2.80;50.00;;;;;;5033312;28;20171;-49
2022/03/21 03:34:35;;;;;;;8.07;7.27;;;2.80;50.00;;;;;;5032816;28;20701;-52
2022/03/21 03:37:01;;;;;;;8.97;6.70;;;2.80;50.70;;;;;;5032485;28;20226;-51
2022/03/21 03:39:27;;;;;;;8.97;7.67;;;2.80;51.80;;;;;;5032882;28;20199;-49
2022/03/21 03:41:52;;;;;;;8.63;7.73;;;2.70;51.20;;;;;;5033248;28;20176;-51
2022/03/21 03:44:18;;;;;;;11.73;8.70;;;2.70;51.50;;;;;;5033047;28;20247;-52
2022/03/21 03:46:46;;;;;;;9.80;8.17;;;2.70;51.60;;;;;;5033013;28;20204;-50
2022/03/21 03:49:12;;;;;;;9.30;7.90;;;2.60;52.40;;;;;;5033163;28;20184;-51
2022/03/21 03:51:38;;;;;;;8.93;7.20;;;2.60;51.80;;;;;;5033012;28;20422;-49
2022/03/21 03:54:03;;;;;;;7.90;6.50;;;2.60;51.50;;;;;;5032694;28;20175;-52
2022/03/21 03:56:29;;;;;;;7.53;6.27;;;2.60;50.90;;;;;;5033182;28;20175;-49
2022/03/21 03:58:54;;;;;;;7.47;6.40;;;2.60;51.20;;;;;;5031128;28;20338;-52
2022/03/21 04:01:20;;;;;;;8.47;7.07;;;2.50;51.80;;;;;;5032940;28;20242;-52
2022/03/21 04:03:46;;;;;;;8.33;6.73;;;2.50;52.00;;;;;;5032524;28;20176;-52
2022/03/21 04:06:22;;;;;;;7.47;6.50;;;2.50;51.40;;;;;;5032713;28;20164;-50
2022/03/21 04:08:50;;;;;;;7.30;6.20;;;2.50;51.10;;;;;;5032812;28;20196;-49
2022/03/21 04:11:15;;;;;;;8.23;6.90;;;2.40;51.00;;;;;;5032780;28;20473;-49
2022/03/21 04:13:42;;;;;;;9.23;6.90;;;2.50;51.70;;;;;;5032336;28;20410;-52
2022/03/21 04:16:08;;;;;;;8.53;6.53;;;2.50;52.70;;;;;;5015271;28;20514;-50
2022/03/21 04:18:34;;;;;;;7.40;6.27;;;2.40;54.20;;;;;;5032575;28;20462;-49
2022/03/21 04:21:00;;;;;;;7.97;6.73;;;2.30;54.30;;;;;;5032158;28;20454;-52
2022/03/21 04:23:25;;;;;;;7.23;6.07;;;2.30;54.20;;;;;;5032305;28;20496;-49
2022/03/21 04:25:51;;;;;;;8.53;6.20;;;2.20;54.50;;;;;;5032393;28;20175;-53
2022/03/21 04:28:17;;;;;;;8.37;7.20;;;2.20;54.80;;;;;;5032360;28;20234;-51
2022/03/21 04:30:43;;;;;;;8.93;7.00;;;2.20;53.70;;;;;;5032317;28;20191;-52
2022/03/21 04:33:10;;;;;;;9.67;6.70;;;2.20;53.80;;;;;;5032155;28;20167;-50
2022/03/21 04:35:36;;;;;;;7.90;6.30;;;2.10;54.00;;;;;;5032171;28;20943;-49
2022/03/21 04:38:03;;;;;;;7.43;6.43;;;2.10;54.80;;;;;;5032295;28;20402;-48
2022/03/21 04:40:29;;;;;;;7.60;6.17;;;2.00;55.40;;;;;;5032448;28;20461;-50
2022/03/21 04:42:54;;;;;;;8.80;6.97;;;2.00;55.70;;;;;;5031763;28;20791;-50
2022/03/21 04:45:20;;;;;;;8.10;6.70;;;2.00;54.80;;;;;;5014395;28;20180;-49
2022/03/21 04:47:45;;;;;;;8.83;6.40;;;1.90;54.70;;;;;;5031410;28;20163;-49
2022/03/21 04:50:14;;;;;;;7.73;6.13;;;1.90;55.20;;;;;;5031919;28;20229;-52
2022/03/21 04:52:40;;;;;;;7.47;6.47;;;1.90;56.10;;;;;;5031747;28;20653;-51
2022/03/21 04:55:09;;;;;;;8.30;6.43;;;1.80;56.80;;;;;;5032091;28;20506;-49
2022/03/21 04:57:35;;;;;;;7.57;6.33;;;1.80;57.30;;;;;;5031768;28;20262;-52
2022/03/21 05:00:05;;;;;;;7.70;6.83;;;1.80;56.70;;;;;;5031755;28;20454;-51
2022/03/21 05:02:31;;;;;;;9.23;6.50;;;1.80;55.80;;;;;;5031595;28;20514;-51
2022/03/21 05:04:56;;;;;;;8.27;6.60;;;1.80;56.00;;;;;;5031917;28;20966;-49
2022/03/21 05:07:22;;;;;;;9.13;7.20;;;1.70;55.90;;;;;;5031748;28;20186;-51
2022/03/21 05:09:50;;;;;;;10.23;6.77;;;1.70;56.30;;;;;;5031709;28;20734;-49
2022/03/21 05:12:16;;;;;;;9.23;6.97;;;1.70;57.20;;;;;;5031658;28;20271;-51
2022/03/21 05:14:42;;;;;;;8.30;7.07;;;1.60;57.90;;;;;;4997437;28;20509;-54
2022/03/21 05:17:10;;;;;;;7.30;6.50;;;1.60;56.80;;;;;;5014452;28;20653;-50
2022/03/21 05:22:05;;;;;;;7.70;6.60;;;1.70;56.60;;;;;;5047245;28;20473;-49
2022/03/21 05:35:52;;;;;;;7.97;6.37;;;1.70;56.50;;;;;;4970186;28;20417;-51
2022/03/21 05:35:54;;;;;;;8.27;6.77;;;1.70;57.00;;;;;;4970371;28;20977;-51
2022/03/21 05:38:24;;;;;;;9.17;6.90;;;1.70;57.20;;;;;;4962488;28;20476;-53
2022/03/21 05:40:51;;;;;;;10.67;6.67;;;1.80;57.70;;;;;;4969905;28;20613;-53
2022/03/21 05:43:17;;;;;;;8.47;6.67;;;1.90;58.10;;;;;;4970283;28;20772;-50
2022/03/21 05:45:43;;;;;;;8.23;6.23;;;1.90;58.20;;;;;;4970618;28;20556;-53
2022/03/21 05:50:53;;;;;;;8.60;6.80;;;1.90;58.10;;;;;;4970301;28;20630;-51
2022/03/21 05:53:18;;;;;;;9.63;6.60;;;1.90;58.30;;;;;;4969995;28;20417;-48
2022/03/21 05:55:45;;;;;;;8.13;6.30;;;2.00;58.10;;;;;;4963271;28;20185;-49
2022/03/21 05:58:12;;;;;;;8.97;6.33;;;2.00;57.70;;;;;;4971903;28;20174;-50
2022/03/21 06:00:38;;;;;;;8.33;6.47;;;2.10;57.30;;;;;;4973844;28;20460;-52
2022/03/21 06:03:04;;;;;;;8.83;6.37;;;2.20;58.20;;;;;;4973628;28;20424;-52
2022/03/21 06:05:30;;;;;;;8.47;6.70;;;2.30;57.80;;;;;;4974121;28;20417;-50
2022/03/21 06:07:56;;;;;;;8.30;6.53;;;2.30;57.60;;;;;;5030162;28;20608;-50
2022/03/21 06:10:21;;;;;;;11.17;8.27;;;2.40;58.00;;;;;;5035040;28;20430;-48
2022/03/21 06:12:48;;;;;;;12.73;8.23;;;2.50;57.00;;;;;;5034541;28;20199;-49
2022/03/21 06:15:14;;;;;;;10.50;7.77;;;2.60;56.40;;;;;;5034606;28;20254;-48
2022/03/21 06:17:41;;;;;;;9.43;7.07;;;2.70;57.40;;;;;;5034787;28;20502;-49
2022/03/21 06:20:12;;;;;;;8.77;6.90;;;2.80;58.10;;;;;;5015659;28;20211;-48
2022/03/21 06:22:38;;;;;;;7.73;6.40;;;2.90;58.10;;;;;;5034363;28;20418;-48
2022/03/21 06:25:05;;;;;;;7.57;6.20;;;3.00;58.00;;;;;;5034545;28;20406;-48
2022/03/21 06:27:31;;;;;;;9.00;7.00;;;3.00;57.50;;;;;;5034484;28;20413;-51
2022/03/21 06:29:56;;;;;;;7.60;6.50;;;3.10;57.00;;;;;;5033987;28;20669;-51
2022/03/21 06:32:23;;;;;;;10.30;6.27;;;3.20;56.80;;;;;;5034159;28;20422;-48
2022/03/21 06:34:49;;;;;;;11.47;9.50;;;3.30;57.30;;;;;;5034334;28;20186;-51
2022/03/21 06:37:15;;;;;;;9.87;8.30;;;3.40;56.00;;;;;;5034254;28;20708;-48
2022/03/21 06:39:40;;;;;;;8.97;7.57;;;3.50;55.00;;;;;;5034171;28;20203;-47
2022/03/21 06:42:06;;;;;;;7.33;6.37;;;3.70;55.30;;;;;;5032933;28;20172;-49
2022/03/21 06:44:32;;;;;;;6.97;6.13;;;3.80;55.80;;;;;;5032220;28;20591;-50
2022/03/21 06:46:58;;;;;;;7.83;6.33;;;3.80;55.50;;;;;;5032492;28;20226;-51
2022/03/21 06:49:29;;;;;;;8.43;6.57;;;3.90;55.70;;;;;;5032315;28;20168;-50
2022/03/21 06:51:59;;;;;;;7.30;5.80;;;4.00;54.30;;;;;;5032534;28;20238;-51
2022/03/21 06:54:24;;;;;;;6.70;5.90;;;4.10;51.90;;;;;;5031943;28;20168;-52
2022/03/21 06:56:50;;;;;;;14.13;12.03;;;4.30;52.00;;;;;;5032667;28;20183;-48
2022/03/21 06:59:15;;;;;;;8.50;6.53;;;4.40;54.00;;;;;;5033606;28;20185;-49
2022/03/21 07:01:41;;;;;;;6.53;5.83;;;4.50;50.60;;;;;;5033890;28;20561;-52
2022/03/21 07:04:06;;;;;;;7.80;6.07;;;4.60;50.80;;;;;;5032999;28;20187;-48
2022/03/21 07:06:32;;;;;;;7.20;5.83;;;4.70;50.60;;;;;;5033931;28;20174;-48
2022/03/21 07:08:57;;;;;;;6.87;6.17;;;4.90;50.60;;;;;;5032932;28;20164;-54
2022/03/21 07:11:23;;;;;;;7.07;6.00;;;5.00;50.20;;;;;;5016047;28;20227;-49
2022/03/21 07:13:49;;;;;;;6.97;6.10;;;5.10;50.80;;;;;;5015587;28;20266;-49
2022/03/21 07:16:16;;;;;;;6.70;5.93;;;5.30;49.90;;;;;;5033751;28;20187;-50
2022/03/21 07:18:44;;;;;;;6.97;6.27;;;5.40;48.90;;;;;;5033614;28;20691;-52
2022/03/21 07:21:11;;;;;;;7.50;6.30;;;5.50;48.00;;;;;;5033550;28;20203;-53
2022/03/21 07:23:37;;;;;;;6.20;5.60;;;5.60;47.10;;;;;;5032903;28;20187;-52
2022/03/21 07:26:03;;;;;;;7.47;5.90;;;5.70;48.20;;;;;;5031977;28;20176;-53
2022/03/21 07:28:28;;;;;;;7.30;5.90;;;5.70;48.70;;;;;;5033720;28;20202;-48
2022/03/21 07:30:54;;;;;;;6.30;5.20;;;5.90;49.20;;;;;;5031690;28;20258;-52
2022/03/21 07:33:20;;;;;;;6.47;5.60;;;6.00;47.40;;;;;;5031912;28;20179;-48
2022/03/21 07:35:46;;;;;;;6.33;5.53;;;6.10;47.10;;;;;;5031032;28;20186;-49
2022/03/21 07:38:12;;;;;;;7.00;5.60;;;6.20;46.90;;;;;;5033066;28;20263;-51
2022/03/21 07:40:37;;;;;;;6.70;5.43;;;6.20;46.30;;;;;;5032795;28;20203;-50
2022/03/21 07:43:03;;;;;;;6.27;5.37;;;6.30;47.00;;;;;;5033132;28;20207;-51
2022/03/21 07:48:12;;;;;;;7.07;5.40;;;6.60;45.10;;;;;;5033332;28;20699;-50
2022/03/21 07:50:38;;;;;;;6.97;5.40;;;6.70;45.00;;;;;;5033054;28;20203;-52
2022/03/21 07:53:05;;;;;;;7.40;5.57;;;6.70;45.00;;;;;;5032688;28;20234;-53
2022/03/21 07:55:31;;;;;;;6.10;5.23;;;6.70;44.70;;;;;;5033188;28;20172;-48
2022/03/21 07:57:56;;;;;;;6.07;5.33;;;6.80;45.60;;;;;;5032937;28;20172;-50
2022/03/21 08:00:26;;;;;;;5.50;5.00;;;7.00;45.30;;;;;;5032727;28;20219;-49
2022/03/21 08:02:51;;;;;;;7.47;5.50;;;7.10;45.20;;;;;;5032558;28;20625;-48
2022/03/21 08:05:18;;;;;;;7.03;5.60;;;7.20;45.60;;;;;;5033014;28;20175;-51
2022/03/21 08:07:43;;;;;;;6.23;5.53;;;7.30;45.10;;;;;;5032630;28;20179;-48
2022/03/21 08:10:10;;;;;;;6.07;4.93;;;7.40;44.20;;;;;;5032750;28;20592;-51
2022/03/21 08:12:36;;;;;;;6.80;5.40;;;7.50;44.20;;;;;;5032293;28;20271;-48
2022/03/21 08:15:03;;;;;;;7.20;5.23;;;7.50;42.00;;;;;;5032677;28;20168;-51
2022/03/21 08:17:30;;;;;;;5.63;5.00;;;7.60;44.00;;;;;;5032805;28;20164;-52
2022/03/21 08:19:56;;;;;;;7.10;5.30;;;7.70;43.70;;;;;;5032175;28;20692;-51
2022/03/21 08:22:21;;;;;;;5.70;4.77;;;8.00;43.50;;;;;;5032325;28;20274;-55
2022/03/21 08:24:47;;;;;;;5.83;4.90;;;8.00;42.30;;;;;;5032442;28;20263;-50
2022/03/21 08:27:14;;;;;;;5.73;4.90;;;8.10;41.60;;;;;;5032481;28;20208;-50
2022/03/21 08:29:39;;;;;;;5.73;4.77;;;8.30;42.40;;;;;;5031976;28;20187;-51
2022/03/21 08:32:06;;;;;;;6.33;4.80;;;8.50;42.20;;;;;;5032338;28;20210;-49
2022/03/21 08:34:32;;;;;;;5.53;4.77;;;8.60;40.20;;;;;;5031983;28;20632;-55
2022/03/21 08:36:57;;;;;;;7.13;5.03;;;8.70;39.80;;;;;;5032485;28;20176;-52
2022/03/21 08:39:23;;;;;;;5.97;5.07;;;8.70;40.60;;;;;;5032160;28;20522;-54
2022/03/21 08:41:49;;;;;;;6.13;5.17;;;8.80;40.90;;;;;;5032060;28;20262;-53
2022/03/21 08:44:14;;;;;;;5.93;5.00;;;8.90;40.90;;;;;;5031911;28;20227;-50
2022/03/21 08:46:40;;;;;;;7.43;4.90;;;9.00;40.10;;;;;;5032063;28;20222;-52
2022/03/21 08:49:23;;;;;;;5.40;4.67;;;9.10;42.50;;;;;;5032087;28;20271;-50
2022/03/21 08:51:49;;;;;;;6.27;5.40;;;9.40;42.20;;;;;;5032030;28;20218;-51
2022/03/21 08:54:15;;;;;;;6.83;5.20;;;9.80;42.30;;;;;;5031781;28;20246;-50
2022/03/21 08:56:40;;;;;;;7.80;5.37;;;9.90;41.20;;;;;;5032017;28;20176;-49
2022/03/21 08:59:06;;;;;;;6.77;5.60;;;10.10;40.40;;;;;;5031903;28;20178;-51
2022/03/21 09:01:32;;;;;;;6.83;5.17;;;10.30;39.90;;;;;;5031807;28;20203;-51
2022/03/21 09:04:01;;;;;;;6.53;5.20;;;10.50;41.80;;;;;;5031778;28;20222;-51
2022/03/21 09:06:27;;;;;;;5.37;4.87;;;10.90;39.20;;;;;;5031987;28;20182;-49
2022/03/21 09:08:53;;;;;;;5.67;4.93;;;11.10;39.60;;;;;;5031855;28;20183;-51
2022/03/21 09:11:19;;;;;;;6.30;5.33;;;11.30;39.20;;;;;;5031681;28;20218;-54
2022/03/21 09:13:46;;;;;;;6.37;4.63;;;11.50;37.60;;;;;;5031598;28;20217;-51
2022/03/21 09:16:12;;;;;;;7.63;5.50;;;11.70;37.20;;;;;;5031906;28;20168;-51
2022/03/21 09:18:39;;;;;;;5.70;5.10;;;11.60;38.10;;;;;;5031793;28;20164;-55
2022/03/21 09:21:05;;;;;;;6.90;5.37;;;11.50;37.00;;;;;;5031589;28;20318;-52
2022/03/21 09:23:30;;;;;;;6.97;5.20;;;11.40;36.90;;;;;;5031383;28;20656;-51
2022/03/21 09:25:56;;;;;;;6.00;4.80;;;11.40;36.70;;;;;;5031998;28;20176;-51
2022/03/21 09:28:21;;;;;;;5.17;4.67;;;11.70;37.50;;;;;;5031661;28;20183;-51
2022/03/21 09:30:48;;;;;;;4.77;4.27;;;12.20;36.50;;;;;;5031370;28;20218;-46
2022/03/21 09:33:15;;;;;;;5.17;4.67;;;12.60;37.50;;;;;;5033426;28;20222;-48
2022/03/21 09:35:43;;;;;;;5.50;4.53;;;13.10;35.20;;;;;;5035825;28;20192;-53
2022/03/21 09:38:09;;;;;;;6.10;4.67;;;13.60;35.20;;;;;;5035625;28;20691;-49
2022/03/21 09:40:35;;;;;;;5.30;4.50;;;14.10;37.00;;;;;;5035524;28;20230;-54
2022/03/21 09:43:01;;;;;;;7.27;4.67;;;14.90;36.00;;;;;;5035541;28;20179;-54
2022/03/21 09:45:27;;;;;;;5.07;4.57;;;15.60;33.20;;;;;;5035651;28;20179;-51
2022/03/21 09:48:08;;;;;;;4.70;4.30;;;16.20;33.70;;;;;;5035424;28;20168;-54
2022/03/21 09:50:45;;;;;;;4.57;4.17;;;16.90;32.50;;;;;;5035091;28;20573;-51
2022/03/21 09:53:15;;;;;;;4.80;4.40;;;17.80;30.80;;;;;;5035009;28;20183;-48
2022/03/21 09:55:42;;;;;;;4.40;4.00;;;18.50;30.60;;;;;;5035203;28;20648;-55
2022/03/21 09:58:11;;;;;;;5.73;4.60;;;19.20;29.40;;;;;;5035207;28;20349;-50
2022/03/21 10:00:41;;;;;;;5.15;4.70;;;19.90;29.50;;;;;;5035112;28;20217;-53
2022/03/21 10:03:07;;;;;;;4.65;4.13;;;20.90;28.30;;;;;;5034906;28;20176;-50
2022/03/21 10:05:38;;;;;;;4.65;4.20;;;21.90;27.00;;;;;;5035167;28;20263;-55
2022/03/21 10:08:14;;;;;;;5.15;4.10;;;23.00;27.70;;;;;;5035132;28;20238;-51
2022/03/21 10:10:39;;;;;;;6.05;4.25;;;23.80;26.00;;;;;;5034800;28;20776;-53
2022/03/21 10:13:10;;;;;;;4.90;4.32;;;24.20;24.40;;;;;;5034731;28;20247;-52
2022/03/21 10:15:37;;;;;;;4.45;4.05;;;23.60;24.30;;;;;;5017642;28;20532;-54
2022/03/21 10:18:09;;;;;;;4.18;3.78;;;23.10;25.50;;;;;;5034862;28;20179;-49
2022/03/21 10:20:36;;;;;;;5.40;4.00;;;24.30;25.40;;;;;;5034718;28;20270;-51
2022/03/21 10:23:19;;;;;;;4.53;4.13;;;24.80;24.40;;;;;;5034547;28;20190;-50
2022/03/21 10:25:45;;;;;;;4.50;4.10;;;25.50;23.70;;;;;;5034861;28;20641;-54
2022/03/21 10:28:34;;;;;;;4.50;4.07;;;26.30;23.90;;;;;;5034537;28;20176;-55
2022/03/21 10:31:01;;;;;;;4.50;4.10;;;26.80;23.30;;;;;;5034659;28;20204;-52
2022/03/21 10:33:27;;;;;;;4.57;4.18;;;26.80;22.70;;;;;;5034343;28;20510;-47
2022/03/21 10:35:52;;;;;;;4.03;3.72;;;26.80;22.20;;;;;;5034709;28;20175;-53
2022/03/21 10:38:32;;;;;;;5.15;4.32;;;27.20;22.50;;;;;;5034442;28;20183;-54
2022/03/21 10:41:05;;;;;;;5.25;4.13;;;28.10;21.60;;;;;;5034492;28;20188;-54
2022/03/21 10:43:31;;;;;;;5.85;4.10;;;28.40;20.80;;;;;;5033495;28;20169;-49
2022/03/21 10:45:57;;;;;;;4.43;4.03;;;28.00;20.80;;;;;;5033900;28;20234;-53
2022/03/21 10:48:29;;;;;;;4.40;4.00;;;27.50;21.50;;;;;;5016768;28;20226;-54
2022/03/21 10:50:57;;;;;;;4.00;3.70;;;27.60;21.20;;;;;;5034239;28;20207;-50
2022/03/21 10:53:28;;;;;;;4.50;4.10;;;27.80;21.20;;;;;;5033986;28;20195;-51
2022/03/21 10:56:05;;;;;;;5.03;3.70;;;28.10;20.70;;;;;;5034359;28;20160;-50
2022/03/21 10:58:40;;;;;;;4.15;3.75;;;28.60;21.90;;;;;;5034204;28;20553;-53
2022/03/21 11:01:32;;;;;;;4.90;3.90;;;29.00;21.10;;;;;;5034158;28;20197;-53
2022/03/21 11:03:59;;;;;;;4.57;4.10;;;29.40;20.20;;;;;;5033703;28;20184;-50
2022/03/21 11:06:29;;;;;;;3.90;3.60;;;29.70;21.40;;;;;;5034211;28;20172;-50
2022/03/21 11:08:55;;;;;;;4.40;4.00;;;30.30;20.30;;;;;;5033853;28;20179;-48
2022/03/21 11:11:22;;;;;;;4.07;3.58;;;30.30;19.60;;;;;;5033735;28;20237;-50
2022/03/21 11:13:48;;;;;;;3.92;3.63;;;30.50;19.80;;;;;;5033540;28;20184;-54
2022/03/21 11:16:18;;;;;;;5.32;4.28;;;31.60;20.10;;;;;;5033969;28;20176;-56
2022/03/21 11:18:48;;;;;;;4.60;3.95;;;31.00;20.10;;;;;;5033893;28;20168;-50
2022/03/21 11:21:14;;;;;;;4.28;3.88;;;31.50;19.00;;;;;;5071523;22;20314;-55
2022/03/21 11:23:40;;;;;;;4.40;4.00;;;31.40;18.40;;;;;;5032634;28;20254;-52
2022/03/21 11:26:16;;;;;;;5.20;4.65;;;30.30;18.00;;;;;;5032870;28;20175;-53
2022/03/21 11:29:00;;;;;;;4.60;4.20;;;29.50;19.10;;;;;;5033354;28;20176;-54
2022/03/21 11:31:32;;;;;;;4.65;4.10;;;27.80;18.80;;;;;;5026481;28;20211;-54
2022/03/21 11:34:25;;;;;;;8.43;4.15;;;27.70;21.40;;;;;;5033228;28;20176;-51
2022/03/21 11:36:58;;;;;;;4.70;4.30;;;28.10;19.50;;;;;;5033311;28;20258;-53
2022/03/21 11:39:25;;;;;;;6.63;4.43;;;27.60;19.80;;;;;;5033118;28;20203;-53
2022/03/21 11:42:11;;;;;;;4.72;4.32;;;26.00;20.50;;;;;;5015364;28;20200;-52
2022/03/21 11:44:38;;;;;;;6.78;4.47;;;24.40;22.70;;;;;;5033133;28;20553;-51
2022/03/21 11:47:21;;;;;;;4.90;4.40;;;24.80;21.60;;;;;;5033162;28;20176;-51
2022/03/21 11:49:46;;;;;;;4.82;4.43;;;25.40;21.10;;;;;;5033199;28;20545;-51
2022/03/21 11:52:12;;;;;;;4.80;4.40;;;26.10;21.30;;;;;;5033024;28;20199;-50
2022/03/21 11:54:38;;;;;;;4.57;4.18;;;26.60;21.70;;;;;;5032686;28;20172;-50
2022/03/21 11:57:08;;;;;;;4.05;3.70;;;26.80;21.00;;;;;;5032277;28;20175;-56
2022/03/21 11:59:34;;;;;;;4.60;4.20;;;27.80;20.70;;;;;;5032943;28;20172;-53
2022/03/21 12:02:01;;;;;;;5.28;3.85;;;28.60;20.00;;;;;;5032851;28;20183;-51
2022/03/21 12:04:29;;;;;;;4.88;4.38;;;29.10;20.70;;;;;;5032666;28;20389;-52
2022/03/21 12:06:59;;;;;;;4.40;3.85;;;29.60;19.60;;;;;;5032840;28;20222;-54
2022/03/21 12:09:41;;;;;;;4.65;4.25;;;30.30;20.40;;;;;;5032707;28;20172;-53
2022/03/21 12:12:10;;;;;;;4.40;4.00;;;30.40;19.30;;;;;;5032653;28;20720;-52
2022/03/21 12:14:45;;;;;;;4.28;3.88;;;30.80;19.70;;;;;;5032410;28;20638;-50
2022/03/21 12:17:11;;;;;;;4.80;4.40;;;31.20;18.90;;;;;;5032644;28;20172;-54
2022/03/21 12:19:48;;;;;;;6.20;4.10;;;30.30;18.80;;;;;;5032510;28;20262;-52
2022/03/21 12:22:35;;;;;;;4.57;4.18;;;29.20;19.30;;;;;;5032274;28;20199;-50
2022/03/21 12:25:08;;;;;;;4.05;3.75;;;29.10;20.10;;;;;;5032455;28;20184;-53
2022/03/21 12:28:00;;;;;;;4.72;4.32;;;29.50;20.80;;;;;;5032621;28;20301;-55
2022/03/21 12:30:31;;;;;;;6.00;4.50;;;30.00;19.60;;;;;;4993947;28;20576;-56
2022/03/21 12:32:58;;;;;;;4.00;3.60;;;30.60;19.90;;;;;;5030946;28;20176;-53
2022/03/21 12:35:39;;;;;;;4.53;4.00;;;31.60;20.20;;;;;;5032229;28;20176;-56
2022/03/21 12:38:11;;;;;;;4.40;4.10;;;31.90;18.30;;;;;;5032385;28;20199;-51
2022/03/21 12:40:48;;;;;;;5.95;4.47;;;31.20;18.70;;;;;;5032069;28;20199;-53
2022/03/21 12:43:16;;;;;;;4.68;4.28;;;30.00;18.30;;;;;;5032055;28;20168;-53
2022/03/21 12:45:45;;;;;;;4.68;4.15;;;28.80;19.10;;;;;;5032105;28;20218;-53
2022/03/21 12:48:17;;;;;;;4.72;4.20;;;28.80;19.50;;;;;;5032324;28;20664;-55
2022/03/21 12:50:45;;;;;;;4.70;4.30;;;28.80;19.60;;;;;;5031769;28;20246;-55
2022/03/21 12:53:12;;;;;;;5.93;4.60;;;28.30;19.50;;;;;;5031875;28;20251;-54
2022/03/21 12:55:38;;;;;;;4.32;3.95;;;28.90;20.30;;;;;;5031945;28;20645;-53
2022/03/21 12:58:07;;;;;;;4.90;4.40;;;29.20;19.10;;;;;;5032013;28;20252;-55
2022/03/21 13:00:35;;;;;;;4.60;4.20;;;29.00;18.50;;;;;;5031755;28;20553;-50
2022/03/21 13:03:15;;;;;;;4.78;4.47;;;28.70;19.40;;;;;;5031591;28;20168;-56
2022/03/21 13:11:52;;;;;;;6.03;4.60;;;25.80;20.20;;;;;;4951385;29;20270;-53
2022/03/21 13:14:19;;;;;;;4.82;4.30;;;25.30;21.20;;;;;;5019007;28;20669;-56
2022/03/21 13:16:59;;;;;;;5.30;4.80;;;26.10;20.40;;;;;;5031761;28;20171;-55
2022/03/21 13:19:27;;;;;;;5.25;4.57;;;26.30;21.50;;;;;;5031728;28;20553;-52
2022/03/21 13:22:12;;;;;;;4.90;4.50;;;26.60;20.30;;;;;;5031606;28;20203;-55